createdAt,value
2023-07-28T00:00:40.297Z,99844.72
2023-07-28T00:03:43.387Z,99838.38
2023-07-28T00:06:46.379Z,99835.78
2023-07-28T00:09:49.254Z,99837.25
2023-07-28T00:12:52.110Z,99836.75
2023-07-28T00:15:54.997Z,99831.91
2023-07-28T00:18:57.747Z,99835.06
2023-07-28T00:22:00.553Z,99828.19
2023-07-28T00:25:04.064Z,99821.28
2023-07-28T00:28:07.024Z,99825.50
2023-07-28T00:31:09.889Z,99817.72
2023-07-28T00:34:12.920Z,99821.94
2023-07-28T00:37:15.646Z,99822.66
2023-07-28T00:40:18.590Z,99815.44
2023-07-28T00:43:21.402Z,99827.53
2023-07-28T00:46:24.460Z,99819.16
2023-07-28T00:49:27.344Z,99818.37
2023-07-28T00:52:30.294Z,99820.31
2023-07-28T00:55:33.024Z,99823.22
2023-07-28T00:58:35.938Z,99817.31
2023-07-28T01:01:38.695Z,99808.97
2023-07-28T01:04:41.939Z,99807.59
2023-07-28T01:07:55.259Z,99812.59
2023-07-28T01:10:58.127Z,99802.59
2023-07-28T01:14:00.782Z,99797.81
2023-07-28T01:17:03.789Z,99797.00
2023-07-28T01:20:06.985Z,99797.00
2023-07-28T01:23:17.871Z,99790.03
2023-07-28T01:26:33.192Z,99794.81
2023-07-28T01:29:36.961Z,99789.16
2023-07-28T01:32:39.710Z,99797.97
2023-07-28T01:35:42.449Z,99791.25
2023-07-28T01:38:45.237Z,99788.34
2023-07-28T01:41:48.122Z,99788.34
2023-07-28T01:44:51.944Z,99781.59
2023-07-28T01:47:54.728Z,99783.22
2023-07-28T01:50:57.530Z,99788.34
2023-07-28T01:54:00.317Z,99787.75
2023-07-28T01:57:03.041Z,99789.31
2023-07-28T02:00:06.554Z,99792.19
2023-07-28T02:03:09.299Z,99785.34
2023-07-28T02:06:12.117Z,99798.81
2023-07-28T02:09:14.770Z,99795.22
2023-07-28T02:12:17.512Z,99802.50
2023-07-28T02:15:20.475Z,99793.34
2023-07-28T02:18:23.280Z,99798.13
2023-07-28T02:21:26.105Z,99806.16
2023-07-28T02:24:28.944Z,99797.53
2023-07-28T02:27:31.620Z,99796.16
2023-07-28T02:30:34.546Z,99803.34
2023-07-28T02:33:38.113Z,99799.31
2023-07-28T02:36:40.911Z,99798.72
2023-07-28T02:39:43.636Z,99802.22
2023-07-28T02:42:46.477Z,99801.16
2023-07-28T02:45:54.850Z,99806.19
2023-07-28T02:48:58.344Z,99809.09
2023-07-28T02:52:01.505Z,99802.47
2023-07-28T02:55:04.478Z,99809.91
2023-07-28T02:58:07.158Z,99800.03
2023-07-28T03:01:10.163Z,99797.34
2023-07-28T03:04:12.851Z,99803.75
2023-07-28T03:07:15.684Z,99802.03
2023-07-28T03:10:18.491Z,99799.59
2023-07-28T03:13:21.244Z,99795.56
2023-07-28T03:16:24.043Z,99801.03
2023-07-28T03:19:26.842Z,99791.31
2023-07-28T03:22:30.767Z,99783.78
2023-07-28T03:25:34.281Z,99792.03
2023-07-28T03:28:37.008Z,99796.88
2023-07-28T03:31:39.772Z,99791.69
2023-07-28T03:34:42.584Z,99787.87
2023-07-28T03:37:45.405Z,99791.69
2023-07-28T03:40:48.107Z,99797.84
2023-07-28T03:43:51.049Z,99797.50
2023-07-28T03:46:53.946Z,99786.47
2023-07-28T03:49:56.939Z,99780.69
2023-07-28T03:52:59.719Z,99791.69
2023-07-28T03:56:04.333Z,99789.28
2023-07-28T03:59:07.073Z,99778.81
2023-07-28T04:02:09.852Z,99795.19
2023-07-28T04:05:13.041Z,99799.25
2023-07-28T04:08:15.863Z,99792.03
2023-07-28T04:11:18.659Z,99803.91
2023-07-28T04:14:21.421Z,99794.59
2023-07-28T04:17:24.158Z,99786.34
2023-07-28T04:20:27.021Z,99792.50
2023-07-28T04:23:29.779Z,99776.00
2023-07-28T04:26:33.010Z,99775.53
2023-07-28T04:29:36.172Z,99772.94
2023-07-28T04:32:39.032Z,99771.41
2023-07-28T04:35:42.643Z,99757.00
2023-07-28T04:38:45.422Z,99758.38
2023-07-28T04:41:48.144Z,99763.00
2023-07-28T04:44:50.911Z,99758.78
2023-07-28T04:47:54.352Z,99760.50
2023-07-28T04:50:57.178Z,99767.00
2023-07-28T04:53:59.894Z,99762.78
2023-07-28T04:57:02.576Z,99759.91
2023-07-28T05:00:06.883Z,99771.16
2023-07-28T05:03:10.395Z,99778.59
2023-07-28T05:06:14.626Z,99785.00
2023-07-28T05:09:17.422Z,99789.88
2023-07-28T05:12:20.072Z,99789.50
2023-07-28T05:15:24.784Z,99799.62
2023-07-28T05:18:27.637Z,99799.06
2023-07-28T05:21:30.470Z,99781.06
2023-07-28T05:24:34.187Z,99782.47
2023-07-28T05:27:37.024Z,99796.41
2023-07-28T05:30:39.858Z,99800.19
2023-07-28T05:33:42.903Z,99801.38
2023-07-28T05:36:45.693Z,99807.53
2023-07-28T05:39:48.541Z,99808.69
2023-07-28T05:42:51.241Z,99795.63
2023-07-28T05:45:54.290Z,99796.69
2023-07-28T05:48:57.590Z,99795.87
2023-07-28T05:52:00.447Z,99804.47
2023-07-28T05:55:03.220Z,99804.59
2023-07-28T05:58:06.614Z,99808.06
2023-07-28T06:01:09.346Z,99805.56
2023-07-28T06:04:12.410Z,99796.88
2023-07-28T06:07:15.095Z,99805.81
2023-07-28T06:10:17.880Z,99792.09
2023-07-28T06:13:20.808Z,99794.84
2023-07-28T06:16:23.662Z,99790.06
2023-07-28T06:19:26.472Z,99784.97
2023-07-28T06:22:29.328Z,99794.47
2023-07-28T06:25:32.174Z,99785.63
2023-07-28T06:28:35.056Z,99778.84
2023-07-28T06:31:38.005Z,99784.44
2023-07-28T06:34:40.896Z,99778.66
2023-07-28T06:37:43.669Z,99774.72
2023-07-28T06:40:46.474Z,99782.41
2023-07-28T06:43:50.256Z,99791.66
2023-07-28T06:46:53.033Z,99789.78
2023-07-28T06:49:55.835Z,99801.56
2023-07-28T06:52:58.582Z,99810.66
2023-07-28T06:56:01.655Z,99812.63
2023-07-28T06:59:14.688Z,99824.97
2023-07-28T07:02:18.857Z,99815.94
2023-07-28T07:05:21.847Z,99807.81
2023-07-28T07:08:24.738Z,99804.84
2023-07-28T07:11:27.573Z,99805.41
2023-07-28T07:14:30.373Z,99784.41
2023-07-28T07:17:33.837Z,99781.66
2023-07-28T07:20:39.991Z,99782.41
2023-07-28T07:23:43.356Z,99788.63
2023-07-28T07:26:46.539Z,99782.38
2023-07-28T07:29:49.334Z,99788.16
2023-07-28T07:32:52.126Z,99787.91
2023-07-28T07:35:55.063Z,99787.72
2023-07-28T07:38:57.763Z,99785.97
2023-07-28T07:42:01.281Z,99782.13
2023-07-28T07:45:05.222Z,99785.69
2023-07-28T07:48:08.140Z,99779.56
2023-07-28T07:51:10.922Z,99779.50
2023-07-28T07:54:17.119Z,99777.69
2023-07-28T07:57:19.879Z,99779.06
2023-07-28T08:00:22.802Z,99770.50
2023-07-28T08:03:25.975Z,99766.13
2023-07-28T08:06:28.885Z,99781.75
2023-07-28T08:09:32.025Z,99776.09
2023-07-28T08:12:34.965Z,99785.50
2023-07-28T08:15:37.721Z,99787.13
2023-07-28T08:18:40.623Z,99784.41
2023-07-28T08:21:43.458Z,99773.06
2023-07-28T08:24:46.366Z,99774.59
2023-07-28T08:27:49.143Z,99773.13
2023-07-28T08:30:59.356Z,99779.28
2023-07-28T08:34:02.261Z,99778.13
2023-07-28T08:37:05.178Z,99785.38
2023-07-28T08:40:08.676Z,99781.34
2023-07-28T08:43:12.062Z,99762.84
2023-07-28T08:46:15.088Z,99766.47
2023-07-28T08:49:17.976Z,99777.72
2023-07-28T08:52:20.779Z,99765.66
2023-07-28T08:55:24.424Z,99760.88
2023-07-28T08:58:27.205Z,99767.78
2023-07-28T09:01:31.614Z,99756.25
2023-07-28T09:04:34.302Z,99769.38
2023-07-28T09:07:37.932Z,99762.16
2023-07-28T09:10:45.256Z,99754.84
2023-07-28T09:13:50.808Z,99769.84
2023-07-28T09:16:54.757Z,99756.97
2023-07-28T09:19:58.158Z,99757.16
2023-07-28T09:23:00.965Z,99756.75
2023-07-28T09:26:07.387Z,99755.78
2023-07-28T09:29:21.662Z,99762.69
2023-07-28T09:32:35.275Z,99748.22
2023-07-28T09:35:49.146Z,99748.19
2023-07-28T09:38:52.755Z,99759.41
2023-07-28T09:41:59.712Z,99763.75
2023-07-28T09:45:02.607Z,99768.41
2023-07-28T09:48:08.845Z,99764.75
2023-07-28T09:51:19.113Z,99760.41
2023-07-28T09:54:29.001Z,99751.06
2023-07-28T09:57:34.453Z,99761.12
2023-07-28T10:00:37.507Z,99742.66
2023-07-28T10:03:40.989Z,99748.00
2023-07-28T10:06:44.222Z,99749.59
2023-07-28T10:09:47.175Z,99762.03
2023-07-28T10:12:51.929Z,99758.97
2023-07-28T10:15:54.854Z,99757.44
2023-07-28T10:18:58.223Z,99765.91
2023-07-28T10:22:09.552Z,99757.84
2023-07-28T10:25:12.413Z,99753.44
2023-07-28T10:28:29.111Z,99761.06
2023-07-28T10:31:32.178Z,99754.66
2023-07-28T10:34:35.057Z,99760.34
2023-07-28T10:37:38.297Z,99757.66
2023-07-28T10:40:41.214Z,99757.87
2023-07-28T10:43:45.222Z,99757.84
2023-07-28T10:46:48.217Z,99772.66
2023-07-28T10:49:50.986Z,99758.94
2023-07-28T10:52:53.922Z,99756.75
2023-07-28T10:55:56.802Z,99753.12
2023-07-28T10:59:01.428Z,99765.59
2023-07-28T11:02:04.207Z,99759.19
2023-07-28T11:05:12.623Z,99761.50
2023-07-28T11:08:15.419Z,99759.28
2023-07-28T11:11:18.289Z,99764.22
2023-07-28T11:14:21.860Z,99749.78
2023-07-28T11:17:26.462Z,99749.91
2023-07-28T11:20:30.167Z,99744.81
2023-07-28T11:23:34.321Z,99747.81
2023-07-28T11:26:38.379Z,99750.63
2023-07-28T11:29:41.887Z,99746.44
2023-07-28T11:32:46.664Z,99748.00
2023-07-28T11:35:49.652Z,99739.06
2023-07-28T11:38:53.339Z,99735.09
2023-07-28T11:41:56.609Z,99737.03
2023-07-28T11:45:00.347Z,99738.75
2023-07-28T11:48:07.746Z,99750.50
2023-07-28T11:51:15.120Z,99748.06
2023-07-28T11:54:23.335Z,99764.63
2023-07-28T11:57:27.522Z,99769.09
2023-07-28T12:00:37.607Z,99776.22
2023-07-28T12:03:40.570Z,99768.56
2023-07-28T12:07:08.843Z,99776.69
2023-07-28T12:10:12.088Z,99772.19
2023-07-28T12:20:17.823Z,99750.34
2023-07-28T12:26:28.243Z,99747.22
2023-07-28T12:29:31.524Z,99743.09
2023-07-28T12:32:37.249Z,99740.19
2023-07-28T12:38:46.915Z,99727.81
2023-07-28T12:42:14.024Z,99715.84
2023-07-28T12:48:21.838Z,99717.88
2023-07-28T12:54:30.686Z,99706.81
2023-07-28T12:57:34.336Z,99705.06
2023-07-28T13:03:43.007Z,99712.19
2023-07-28T13:06:46.239Z,99710.09
2023-07-28T13:09:49.804Z,99711.41
2023-07-28T13:12:56.415Z,99700.00
2023-07-28T13:15:59.791Z,99695.66
2023-07-28T13:19:02.612Z,99686.78
2023-07-28T13:22:06.519Z,99681.97
2023-07-28T13:25:10.484Z,99689.13
2023-07-28T13:28:13.523Z,99675.81
2023-07-28T13:31:18.128Z,99678.22
2023-07-28T13:34:21.007Z,99679.31
2023-07-28T13:37:23.785Z,99673.69
2023-07-28T13:40:28.575Z,99680.91
2023-07-28T13:43:32.015Z,99674.78
2023-07-28T13:46:34.852Z,99663.69
2023-07-28T13:49:51.660Z,99665.75
2023-07-28T13:52:54.936Z,99666.75
2023-07-28T13:55:58.435Z,99677.47
2023-07-28T13:59:01.535Z,99660.47
2023-07-28T14:02:04.687Z,99681.25
2023-07-28T14:05:08.628Z,99669.06
2023-07-28T14:08:11.529Z,99668.13
2023-07-28T14:11:14.372Z,99681.91
2023-07-28T14:14:17.176Z,99663.34
2023-07-28T14:17:20.147Z,99667.88
2023-07-28T14:20:22.973Z,99654.31
2023-07-28T14:23:28.231Z,99665.16
2023-07-28T14:26:31.018Z,99663.47
2023-07-28T14:29:33.897Z,99657.63
2023-07-28T14:32:36.662Z,99676.94
2023-07-28T14:35:39.669Z,99666.47
2023-07-28T14:38:42.408Z,99667.13
2023-07-28T14:41:45.630Z,99670.53
2023-07-28T14:44:48.506Z,99659.19
2023-07-28T14:47:51.592Z,99666.78
2023-07-28T14:50:54.807Z,99670.16
2023-07-28T14:53:57.736Z,99674.22
2023-07-28T14:57:00.568Z,99691.00
2023-07-28T15:00:04.393Z,99707.94
2023-07-28T15:03:07.138Z,99735.06
2023-07-28T15:06:10.357Z,99752.22
2023-07-28T15:09:13.298Z,99769.44
2023-07-28T15:12:16.137Z,99785.22
2023-07-28T15:15:18.946Z,99756.31
2023-07-28T15:18:21.850Z,99753.38
2023-07-28T15:21:25.630Z,99755.59
2023-07-28T15:24:28.421Z,99753.56
2023-07-28T15:27:31.219Z,99754.59
2023-07-28T15:30:34.116Z,99732.59
2023-07-28T15:33:36.878Z,99718.34
2023-07-28T15:36:39.732Z,99710.28
2023-07-28T15:39:42.580Z,99738.03
2023-07-28T15:42:45.775Z,99746.41
2023-07-28T15:45:53.411Z,99758.84
2023-07-28T15:48:56.432Z,99772.06
2023-07-28T15:51:59.323Z,99774.19
2023-07-28T15:55:04.778Z,99775.81
2023-07-28T15:58:07.627Z,99773.13
2023-07-28T16:01:10.539Z,99778.78
2023-07-28T16:04:13.339Z,99789.00
2023-07-28T16:07:16.285Z,99792.75
2023-07-28T16:10:19.094Z,99800.00
2023-07-28T16:13:22.646Z,99811.31
2023-07-28T16:16:25.500Z,99804.78
2023-07-28T16:19:28.513Z,99811.50
2023-07-28T16:22:31.231Z,99809.87
2023-07-28T16:25:34.075Z,99817.91
2023-07-28T16:28:36.894Z,99820.50
2023-07-28T16:31:39.736Z,99815.41
2023-07-28T16:34:42.489Z,99819.88
2023-07-28T16:37:45.276Z,99816.09
2023-07-28T16:40:48.185Z,99831.16
2023-07-28T16:43:51.290Z,99822.22
2023-07-28T16:46:53.991Z,99816.88
2023-07-28T16:49:56.914Z,99829.75
2023-07-28T16:52:59.752Z,99819.00
2023-07-28T16:56:02.506Z,99811.22
2023-07-28T16:59:05.306Z,99819.56
2023-07-28T17:02:08.124Z,99810.16
2023-07-28T17:05:10.982Z,99805.31
2023-07-28T17:08:13.839Z,99799.62
2023-07-28T17:11:16.701Z,99790.25
2023-07-28T17:14:19.433Z,99792.91
2023-07-28T17:17:22.250Z,99792.66
2023-07-28T17:20:25.020Z,99785.47
2023-07-28T17:23:28.331Z,99795.41
2023-07-28T17:26:31.221Z,99787.63
2023-07-28T17:29:34.006Z,99791.62
2023-07-28T17:32:36.886Z,99792.66
2023-07-28T17:35:39.669Z,99796.69
2023-07-28T17:38:42.682Z,99791.81
2023-07-28T17:41:45.936Z,99785.69
2023-07-28T17:44:48.976Z,99791.62
2023-07-28T17:47:51.738Z,99799.16
2023-07-28T17:50:55.047Z,99801.25
2023-07-28T17:53:57.819Z,99800.97
2023-07-28T17:57:00.708Z,99806.59
2023-07-28T18:00:04.293Z,99798.97
2023-07-28T18:03:07.476Z,99807.75
2023-07-28T18:06:10.801Z,99799.72
2023-07-28T18:09:13.685Z,99795.53
2023-07-28T18:12:16.543Z,99790.22
2023-07-28T18:15:19.938Z,99798.28
2023-07-28T18:18:22.965Z,99791.47
2023-07-28T18:21:25.932Z,99788.44
2023-07-28T18:24:28.653Z,99792.19
2023-07-28T18:27:31.556Z,99781.75
2023-07-28T18:30:35.201Z,99780.53
2023-07-28T18:33:38.146Z,99781.31
2023-07-28T18:36:41.292Z,99789.72
2023-07-28T18:39:44.145Z,99784.12
2023-07-28T18:42:47.035Z,99795.87
2023-07-28T18:45:49.976Z,99789.72
2023-07-28T18:48:53.186Z,99787.34
2023-07-28T18:51:55.946Z,99785.47
2023-07-28T18:54:58.844Z,99784.97
2023-07-28T18:58:01.705Z,99797.53
2023-07-28T19:01:04.760Z,99794.53
2023-07-28T19:04:07.914Z,99805.53
2023-07-28T19:07:10.727Z,99806.50
2023-07-28T19:10:13.638Z,99807.59
2023-07-28T19:13:16.472Z,99805.44
2023-07-28T19:16:19.547Z,99811.16
2023-07-28T19:19:22.606Z,99815.63
2023-07-28T19:22:25.562Z,99809.97
2023-07-28T19:25:29.723Z,99811.28
2023-07-28T19:28:32.686Z,99817.19
2023-07-28T19:31:35.892Z,99813.16
2023-07-28T19:34:39.013Z,99812.34
2023-07-28T19:37:45.108Z,99811.94
2023-07-28T19:40:48.429Z,99823.03
2023-07-28T19:43:51.143Z,99831.00
2023-07-28T19:46:54.088Z,99830.50
2023-07-28T19:50:10.296Z,99828.28
2023-07-28T19:53:16.434Z,99821.59
2023-07-28T19:56:19.306Z,99827.78
2023-07-28T19:59:22.472Z,99825.34
2023-07-28T20:02:25.305Z,99822.25
2023-07-28T20:05:28.272Z,99827.25
2023-07-28T20:08:31.040Z,99837.19
2023-07-28T20:11:33.960Z,99840.87
2023-07-28T20:14:36.740Z,99843.22
2023-07-28T20:17:39.716Z,99839.00
2023-07-28T20:20:42.572Z,99838.81
2023-07-28T20:23:45.486Z,99839.06
2023-07-28T20:26:48.198Z,99850.69
2023-07-28T20:29:51.237Z,99847.59
2023-07-28T20:32:54.124Z,99845.97
2023-07-28T20:35:56.930Z,99847.66
2023-07-28T20:39:00.217Z,99851.34
2023-07-28T20:42:03.013Z,99855.38
2023-07-28T20:45:06.470Z,99834.34
2023-07-28T20:48:10.029Z,99830.97
2023-07-28T20:51:12.793Z,99825.41
2023-07-28T20:54:15.624Z,99833.56
2023-07-28T20:57:18.622Z,99839.28
2023-07-28T21:00:21.681Z,99836.88
2023-07-28T21:03:24.534Z,99830.84
2023-07-28T21:06:27.621Z,99831.50
2023-07-28T21:09:30.342Z,99834.00
2023-07-28T21:12:33.026Z,99836.03
2023-07-28T21:15:37.065Z,99829.88
2023-07-28T21:18:39.827Z,99829.16
2023-07-28T21:21:42.582Z,99833.69
2023-07-28T21:24:45.305Z,99836.75
2023-07-28T21:27:48.111Z,99832.53
2023-07-28T21:30:50.881Z,99834.00
2023-07-28T21:33:53.590Z,99837.12
2023-07-28T21:36:56.350Z,99837.22
2023-07-28T21:39:59.170Z,99846.94
2023-07-28T21:43:02.005Z,99850.75
2023-07-28T21:46:05.062Z,99861.03
2023-07-28T21:49:08.081Z,99860.50
2023-07-28T21:52:10.850Z,99855.69
2023-07-28T21:55:14.924Z,99851.34
2023-07-28T21:58:17.796Z,99854.41
2023-07-28T22:01:20.832Z,99861.50
2023-07-28T22:04:23.619Z,99860.09
2023-07-28T22:07:26.361Z,99860.00
2023-07-28T22:10:29.042Z,99862.94
2023-07-28T22:13:31.844Z,99873.63
2023-07-28T22:16:35.363Z,99873.06
2023-07-28T22:19:38.469Z,99868.22
2023-07-28T22:22:41.200Z,99884.16
2023-07-28T22:25:45.420Z,99886.44
2023-07-28T22:28:48.200Z,99888.63
2023-07-28T22:31:50.904Z,99898.59
2023-07-28T22:34:53.668Z,99891.06
2023-07-28T22:37:56.331Z,99873.97
2023-07-28T22:40:59.265Z,99881.44
2023-07-28T22:44:03.724Z,99889.69
2023-07-28T22:47:06.694Z,99890.75
2023-07-28T22:50:10.435Z,99885.16
2023-07-28T22:53:13.295Z,99889.75
2023-07-28T22:56:16.125Z,99891.22
2023-07-28T22:59:18.900Z,99897.06
2023-07-28T23:02:21.642Z,99903.97
2023-07-28T23:05:26.019Z,99902.78
2023-07-28T23:08:29.714Z,99910.69
2023-07-28T23:11:35.892Z,99905.41
2023-07-28T23:14:39.042Z,99907.50
2023-07-28T23:17:43.043Z,99910.75
2023-07-28T23:20:45.663Z,99910.28
2023-07-28T23:23:48.367Z,99915.72
2023-07-28T23:26:50.999Z,99913.28
2023-07-28T23:29:54.039Z,99917.13
2023-07-28T23:32:56.641Z,99913.62
2023-07-28T23:35:59.354Z,99915.84
2023-07-28T23:39:02.050Z,99915.84
2023-07-28T23:42:05.078Z,99906.44
2023-07-28T23:45:08.722Z,99911.19
2023-07-28T23:48:11.464Z,99916.19
2023-07-28T23:51:14.818Z,99909.44
2023-07-28T23:54:17.607Z,99914.66
2023-07-28T23:57:20.366Z,99914.44
